Time;durP1;ratioP1;P1;durP2;ratioP2;P2;SDS_P1;SDS_P2;PMS_P1;PMS_P2;Temp;Humidity;BMP_temperature;BMP_pressure;BME280_temperature;BME280_humidity;BME280_pressure;Samples;Min_cycle;Max_cycle;Signal;HPM_P1;HPM_P2
2023/11/12 00:00:02;;;;;;;3.47;1.10;;;;;;;7.44;100.00;99908.47;5024749;28;20441;-68
2023/11/12 00:02:30;;;;;;;2.73;1.17;;;;;;;7.49;100.00;99907.59;5025542;28;20439;-69
2023/11/12 00:04:56;;;;;;;3.13;1.10;;;;;;;7.50;100.00;99917.25;5028947;28;20468;-68
2023/11/12 00:07:23;;;;;;;2.23;1.07;;;;;;;7.49;100.00;99913.75;5019519;28;20447;-68
2023/11/12 00:09:50;;;;;;;3.60;1.10;;;;;;;7.47;100.00;99917.84;5026411;28;21033;-68
2023/11/12 00:12:18;;;;;;;3.40;1.60;;;;;;;7.47;100.00;99909.75;5024692;28;20448;-68
2023/11/12 00:14:45;;;;;;;2.10;0.73;;;;;;;7.45;100.00;99911.97;5027483;28;20464;-68
2023/11/12 00:17:15;;;;;;;4.00;0.97;;;;;;;7.41;100.00;99906.38;5022167;28;20447;-68
2023/11/12 00:19:41;;;;;;;3.50;1.10;;;;;;;7.38;100.00;99917.72;5025117;28;20850;-68
2023/11/12 00:22:09;;;;;;;2.57;1.07;;;;;;;7.38;100.00;99908.84;5020199;28;20427;-68
2023/11/12 00:24:36;;;;;;;6.20;1.20;;;;;;;7.38;100.00;99904.25;5023710;28;20546;-68
2023/11/12 00:27:02;;;;;;;2.60;0.93;;;;;;;7.38;100.00;99906.16;5026052;28;20470;-68
2023/11/12 00:29:29;;;;;;;4.00;1.30;;;;;;;7.34;100.00;99906.72;5022852;28;20459;-69
2023/11/12 00:31:56;;;;;;;5.03;1.70;;;;;;;7.38;100.00;99904.25;5023255;28;20591;-68
2023/11/12 00:34:24;;;;;;;2.43;0.90;;;;;;;7.41;100.00;99905.56;5034875;28;20467;-68
2023/11/12 00:36:51;;;;;;;2.80;1.20;;;;;;;7.42;100.00;99909.84;5032613;28;20527;-69
2023/11/12 00:39:17;;;;;;;2.67;1.07;;;;;;;7.38;100.00;99906.94;5033093;28;20530;-68
2023/11/12 00:41:44;;;;;;;2.53;0.90;;;;;;;7.38;100.00;99906.16;5029203;28;20468;-68
2023/11/12 00:44:11;;;;;;;3.13;1.00;;;;;;;7.38;100.00;99912.34;5014366;28;20546;-68
2023/11/12 00:46:40;;;;;;;6.30;1.47;;;;;;;7.38;100.00;99906.16;5025303;28;20443;-68
2023/11/12 00:49:07;;;;;;;2.33;0.87;;;;;;;7.42;100.00;99912.53;5033885;28;20443;-68
2023/11/12 00:51:35;;;;;;;2.40;1.03;;;;;;;7.48;100.00;99919.44;5033565;28;21038;-68
2023/11/12 00:54:02;;;;;;;2.87;1.17;;;;;;;7.50;100.00;99918.06;5033598;28;20459;-69
2023/11/12 00:56:29;;;;;;;2.10;0.83;;;;;;;7.50;100.00;99917.25;5029211;28;20539;-68
2023/11/12 00:58:55;;;;;;;4.87;1.97;;;;;;;7.51;100.00;99926.94;5023675;28;20515;-69
2023/11/12 01:01:22;;;;;;;4.60;1.97;;;;;;;7.49;100.00;99918.34;5013867;28;20439;-68
2023/11/12 01:03:49;;;;;;;2.70;1.20;;;;;;;7.44;100.00;99931.94;5031383;28;20501;-69
2023/11/12 01:06:15;;;;;;;3.40;1.33;;;;;;;7.42;100.00;99931.41;5033896;28;20436;-69
2023/11/12 01:08:43;;;;;;;2.47;0.70;;;;;;;7.42;100.00;99929.50;5033911;28;20526;-69
2023/11/12 01:11:10;;;;;;;4.20;1.33;;;;;;;7.45;100.00;99933.50;5033587;28;20544;-68
2023/11/12 01:13:37;;;;;;;3.00;1.47;;;;;;;7.45;100.00;99933.50;5033829;28;20467;-68
2023/11/12 01:16:04;;;;;;;2.70;1.17;;;;;;;7.44;100.00;99938.09;5015963;28;20470;-69
2023/11/12 01:18:33;;;;;;;2.70;0.63;;;;;;;7.50;100.00;99936.91;5013609;28;20950;-68
2023/11/12 01:21:00;;;;;;;4.60;1.00;;;;;;;7.52;100.00;99933.91;5014084;28;20798;-68
2023/11/12 01:23:27;;;;;;;4.17;1.83;;;;;;;7.51;100.00;99940.41;5014089;28;20467;-68
2023/11/12 01:25:55;;;;;;;3.60;1.20;;;;;;;7.54;100.00;99937.13;5013387;28;20476;-68
2023/11/12 01:28:21;;;;;;;2.80;0.90;;;;;;;7.59;100.00;99945.91;5013681;28;20530;-69
2023/11/12 01:30:48;;;;;;;2.50;0.93;;;;;;;7.56;100.00;99943.81;5014105;28;20486;-68
2023/11/12 01:33:15;;;;;;;6.37;2.00;;;;;;;7.56;100.00;99948.41;5013952;28;20496;-68
2023/11/12 01:35:42;;;;;;;5.30;2.03;;;;;;;7.53;100.00;99944.41;5013612;28;20440;-68
2023/11/12 01:38:08;;;;;;;3.63;1.70;;;;;;;7.49;100.00;99946.09;5013561;28;20495;-68
2023/11/12 01:40:39;;;;;;;2.93;0.77;;;;;;;7.48;100.00;99936.44;5013351;28;20506;-68
2023/11/12 01:43:08;;;;;;;3.50;1.17;;;;;;;7.53;100.00;99935.53;5013445;28;20427;-68
2023/11/12 01:45:34;;;;;;;2.83;0.70;;;;;;;7.51;100.00;99943.09;5016415;28;20526;-68
2023/11/12 01:48:02;;;;;;;3.60;1.20;;;;;;;7.47;100.00;99936.69;5017776;28;20527;-68
2023/11/12 01:50:29;;;;;;;4.63;1.23;;;;;;;7.41;100.00;99932.50;5018116;28;20506;-68
2023/11/12 01:52:57;;;;;;;4.70;1.70;;;;;;;7.43;100.00;99930.31;5037139;28;20542;-68
2023/11/12 01:55:26;;;;;;;2.90;1.10;;;;;;;7.39;100.00;99924.69;5037666;28;20439;-69
2023/11/12 01:57:53;;;;;;;3.70;0.93;;;;;;;7.34;100.00;99939.06;5036698;28;20887;-68
2023/11/12 02:00:22;;;;;;;3.43;1.43;;;;;;;7.33;100.00;99937.47;5037076;28;20478;-69
2023/11/12 02:02:49;;;;;;;4.03;1.20;;;;;;;7.31;100.00;99936.19;5019836;28;20447;-69
2023/11/12 02:05:16;;;;;;;2.90;0.97;;;;;;;7.32;100.00;99925.09;5036964;28;20549;-69
2023/11/12 02:07:45;;;;;;;4.00;1.10;;;;;;;7.34;100.00;99930.19;5036529;28;20501;-69
2023/11/12 02:10:15;;;;;;;5.20;2.00;;;;;;;7.36;100.00;99930.69;5017394;28;20452;-69
2023/11/12 02:12:44;;;;;;;3.10;0.70;;;;;;;7.37;100.00;99928.81;5024282;28;20943;-69
2023/11/12 02:15:14;;;;;;;4.40;1.70;;;;;;;7.34;100.00;99922.91;5031466;28;20525;-69
2023/11/12 02:17:44;;;;;;;2.40;0.80;;;;;;;7.37;100.00;99926.09;5018358;28;20460;-69
2023/11/12 02:20:14;;;;;;;4.00;1.33;;;;;;;7.35;100.00;99931.81;5022419;28;20452;-69
2023/11/12 02:22:40;;;;;;;2.50;1.00;;;;;;;7.31;100.00;99928.91;5020843;28;20526;-69
2023/11/12 02:25:09;;;;;;;3.07;1.33;;;;;;;7.31;100.00;99918.13;5025801;28;20551;-69
2023/11/12 02:27:36;;;;;;;3.10;0.90;;;;;;;7.30;100.00;99932.69;5036328;28;20457;-69
2023/11/12 02:30:03;;;;;;;2.70;1.10;;;;;;;7.30;100.00;99926.47;5034625;28;20451;-69
2023/11/12 02:32:31;;;;;;;4.00;1.50;;;;;;;7.27;100.00;99922.50;5024613;28;20520;-69
2023/11/12 02:34:58;;;;;;;2.83;0.97;;;;;;;7.32;100.00;99935.88;5016450;28;20464;-69
2023/11/12 02:37:25;;;;;;;4.37;1.43;;;;;;;7.39;100.00;99930.09;5017145;28;20448;-69
2023/11/12 02:39:51;;;;;;;4.13;0.80;;;;;;;7.42;100.00;99926.81;5031659;28;20446;-68
2023/11/12 02:42:20;;;;;;;2.97;1.33;;;;;;;7.38;100.00;99927.69;5034083;28;20463;-68
2023/11/12 02:44:47;;;;;;;2.77;1.03;;;;;;;7.32;100.00;99933.19;5016330;28;20510;-68
2023/11/12 02:47:13;;;;;;;3.67;1.67;;;;;;;7.38;100.00;99936.56;5030057;28;20447;-68
2023/11/12 02:49:57;;;;;;;3.23;1.23;;;;;;;7.41;100.00;99937.91;5024791;28;20448;-68
2023/11/12 02:52:23;;;;;;;4.00;1.30;;;;;;;7.39;100.00;99929.28;5017502;28;20510;-68
2023/11/12 02:54:50;;;;;;;2.20;0.80;;;;;;;7.41;100.00;99927.13;5016306;28;21051;-68
2023/11/12 02:57:20;;;;;;;2.47;0.70;;;;;;;7.38;100.00;99928.50;5014740;28;20543;-68
2023/11/12 02:59:48;;;;;;;3.10;1.07;;;;;;;7.33;100.00;99932.06;5033095;28;20450;-68
2023/11/12 03:02:15;;;;;;;4.70;1.80;;;;;;;7.33;100.00;99928.59;5034312;28;20435;-68
2023/11/12 03:04:42;;;;;;;3.23;1.43;;;;;;;7.33;100.00;99918.59;5026541;28;20546;-68
2023/11/12 03:07:08;;;;;;;3.37;1.37;;;;;;;7.34;100.00;99933.66;5035253;28;20965;-68
2023/11/12 03:09:35;;;;;;;2.30;1.00;;;;;;;7.46;100.00;99933.22;5035789;28;20466;-68
2023/11/12 03:12:02;;;;;;;3.80;1.03;;;;;;;7.51;100.00;99932.31;5022291;28;20480;-69
2023/11/12 03:14:29;;;;;;;2.30;0.80;;;;;;;7.51;100.00;99927.72;5021329;28;20502;-69
2023/11/12 03:16:57;;;;;;;3.37;1.70;;;;;;;7.56;100.00;99930.31;5034975;28;20443;-69
2023/11/12 03:19:24;;;;;;;5.40;1.23;;;;;;;7.57;100.00;99931.16;5032263;28;20479;-68
2023/11/12 03:21:52;;;;;;;2.53;1.13;;;;;;;7.55;100.00;99933.31;5015507;28;20444;-69
2023/11/12 03:24:19;;;;;;;2.13;0.63;;;;;;;7.54;100.00;99946.00;5016850;28;20467;-70
2023/11/12 03:26:46;;;;;;;4.30;1.67;;;;;;;7.51;100.00;99935.00;5032667;28;20477;-70
2023/11/12 03:29:12;;;;;;;2.80;0.77;;;;;;;7.46;100.00;99937.81;5035036;28;20450;-70
2023/11/12 03:31:39;;;;;;;3.90;1.00;;;;;;;7.43;100.00;99933.00;5018631;28;21055;-69
2023/11/12 03:34:07;;;;;;;2.93;1.20;;;;;;;7.43;100.00;99933.00;5019228;28;20487;-69
2023/11/12 03:36:34;;;;;;;2.77;1.40;;;;;;;7.45;100.00;99933.50;5017690;28;20448;-69
2023/11/12 03:39:01;;;;;;;2.43;0.87;;;;;;;7.45;100.00;99938.91;5022460;28;20479;-69
2023/11/12 03:41:28;;;;;;;2.83;1.23;;;;;;;7.45;100.00;99947.00;5020260;28;20440;-69
2023/11/12 03:43:54;;;;;;;3.70;1.53;;;;;;;7.45;100.00;99947.78;5015484;28;20518;-69
2023/11/12 03:46:21;;;;;;;4.33;1.20;;;;;;;7.42;100.00;99945.66;5027856;28;20478;-70
2023/11/12 03:48:47;;;;;;;2.40;0.70;;;;;;;7.45;100.00;99947.78;5034464;28;20584;-69
2023/11/12 03:51:15;;;;;;;2.10;0.80;;;;;;;7.51;100.00;99948.50;5021931;28;20984;-69
2023/11/12 03:53:42;;;;;;;4.13;1.57;;;;;;;7.49;100.00;99946.09;5018011;28;20499;-69
2023/11/12 03:56:09;;;;;;;3.47;1.07;;;;;;;7.48;100.00;99954.47;5017714;28;20479;-69
2023/11/12 03:58:36;;;;;;;2.67;1.10;;;;;;;7.43;100.00;99951.84;5017195;28;20490;-69
2023/11/12 04:01:03;;;;;;;4.03;1.20;;;;;;;7.46;100.00;99946.69;5015004;28;20532;-69
2023/11/12 04:03:30;;;;;;;4.03;1.20;;;;;;;7.49;100.00;99943.41;5014821;28;20551;-68
2023/11/12 04:05:56;;;;;;;2.43;0.87;;;;;;;7.50;100.00;99947.69;5014590;28;20553;-69
2023/11/12 04:08:24;;;;;;;2.87;1.10;;;;;;;7.48;100.00;99954.47;5021350;28;20447;-69
2023/11/12 04:10:51;;;;;;;1.93;0.60;;;;;;;7.41;100.00;99943.28;5034063;28;20871;-69
2023/11/12 04:13:18;;;;;;;6.07;1.20;;;;;;;7.41;100.00;99954.06;5033065;28;20471;-69
2023/11/12 04:15:45;;;;;;;2.10;0.80;;;;;;;7.45;100.00;99949.69;5034534;28;20479;-69
2023/11/12 04:18:11;;;;;;;3.40;1.10;;;;;;;7.42;100.00;99955.66;5014754;28;20531;-68
2023/11/12 04:20:38;;;;;;;3.73;1.10;;;;;;;7.48;100.00;99954.47;5015768;28;20456;-69
2023/11/12 04:23:04;;;;;;;2.40;0.93;;;;;;;7.47;100.00;99948.28;5014675;28;20853;-69
2023/11/12 04:25:33;;;;;;;3.00;1.60;;;;;;;7.46;100.00;99962.84;5015143;28;20443;-70
2023/11/12 04:27:59;;;;;;;2.43;0.73;;;;;;;7.47;100.00;99952.88;5014969;28;20790;-69
2023/11/12 04:30:26;;;;;;;8.43;2.07;;;;;;;7.48;100.00;99957.16;5028800;28;20475;-70
2023/11/12 04:32:53;;;;;;;2.90;1.67;;;;;;;7.46;100.00;99943.19;5033878;28;20482;-70
2023/11/12 04:35:20;;;;;;;2.30;0.80;;;;;;;7.52;100.00;99947.38;5034010;28;20447;-69
2023/11/12 04:37:46;;;;;;;3.20;1.50;;;;;;;7.54;100.00;99950.59;5030009;28;20451;-70
2023/11/12 04:40:16;;;;;;;3.40;1.20;;;;;;;7.54;100.00;99953.28;5028226;28;20531;-70
2023/11/12 04:42:44;;;;;;;5.30;1.33;;;;;;;7.45;100.00;99955.06;5027579;28;20447;-70
2023/11/12 04:45:11;;;;;;;5.80;1.30;;;;;;;7.44;100.00;99954.28;5024592;28;20468;-70
2023/11/12 04:47:38;;;;;;;3.10;0.70;;;;;;;7.46;100.00;99952.06;5013993;28;20447;-70
2023/11/12 04:50:05;;;;;;;3.50;0.77;;;;;;;7.44;100.00;99965.06;5015765;28;20472;-70
2023/11/12 04:52:32;;;;;;;3.30;0.90;;;;;;;7.39;100.00;99967.00;5014170;28;20512;-70
2023/11/12 04:54:58;;;;;;;3.33;1.10;;;;;;;7.39;100.00;99969.69;5014054;28;20464;-70
2023/11/12 04:57:25;;;;;;;3.80;1.17;;;;;;;7.38;100.00;99960.03;5014618;28;20558;-70
2023/11/12 04:59:53;;;;;;;3.30;0.90;;;;;;;7.34;100.00;99974.09;5034040;28;20449;-69
2023/11/12 05:02:20;;;;;;;2.90;1.20;;;;;;;7.36;100.00;99970.31;5032512;28;20474;-69
2023/11/12 05:04:47;;;;;;;4.90;1.53;;;;;;;7.32;100.00;99968.19;5033320;28;20994;-69
2023/11/12 05:07:14;;;;;;;2.50;0.73;;;;;;;7.30;100.00;99973.09;5033636;28;20474;-69
2023/11/12 05:09:41;;;;;;;2.77;1.00;;;;;;;7.29;100.00;99967.97;5033622;28;20451;-69
2023/11/12 05:12:09;;;;;;;3.57;1.33;;;;;;;7.21;100.00;99974.03;5017699;28;20542;-67
2023/11/12 05:14:36;;;;;;;2.70;1.10;;;;;;;7.22;100.00;99984.53;5013625;28;20544;-67
2023/11/12 05:17:05;;;;;;;2.83;0.80;;;;;;;7.20;100.00;99985.91;5013785;28;20975;-67
2023/11/12 05:19:32;;;;;;;4.00;1.70;;;;;;;7.17;100.00;99991.88;5012985;28;20455;-67
2023/11/12 05:21:58;;;;;;;2.63;1.23;;;;;;;7.15;100.00;99988.69;5015052;28;20506;-67
2023/11/12 05:24:25;;;;;;;2.03;0.70;;;;;;;7.14;100.00;99974.41;5024417;28;20523;-68
2023/11/12 05:26:52;;;;;;;4.10;1.23;;;;;;;7.16;100.00;99968.72;5032642;28;20454;-66
2023/11/12 05:29:19;;;;;;;2.60;1.00;;;;;;;7.12;100.00;99971.19;5032772;28;20942;-67
2023/11/12 05:31:46;;;;;;;3.80;1.53;;;;;;;7.14;100.00;99976.31;5033546;28;20489;-68
2023/11/12 05:34:14;;;;;;;4.57;1.90;;;;;;;7.15;100.00;99972.53;5018909;28;20543;-69
2023/11/12 05:36:41;;;;;;;2.77;0.80;;;;;;;7.17;100.00;99971.16;5016318;28;20454;-68
2023/11/12 05:39:07;;;;;;;2.00;0.60;;;;;;;7.19;100.00;99984.31;5032947;28;20570;-69
2023/11/12 05:41:34;;;;;;;2.97;1.23;;;;;;;7.17;100.00;99984.63;5030932;28;20864;-69
2023/11/12 05:44:01;;;;;;;4.50;1.00;;;;;;;7.13;100.00;99997.06;5031514;28;20459;-69
2023/11/12 05:46:27;;;;;;;2.27;1.10;;;;;;;7.11;100.00;99991.16;5033221;28;20447;-69
2023/11/12 05:48:54;;;;;;;5.40;2.00;;;;;;;7.09;100.00;99993.34;5032753;28;20459;-69
2023/11/12 05:51:22;;;;;;;4.10;1.60;;;;;;;7.02;100.00;99991.00;5033072;28;20485;-69
2023/11/12 05:53:49;;;;;;;2.50;1.00;;;;;;;7.06;100.00;99996.63;5032054;28;20470;-69
2023/11/12 05:56:15;;;;;;;3.30;0.97;;;;;;;7.12;100.00;100005.41;5023085;28;20790;-69
2023/11/12 05:58:42;;;;;;;2.17;0.60;;;;;;;7.14;100.00;100001.34;5029956;28;20522;-69
2023/11/12 06:01:09;;;;;;;4.17;1.97;;;;;;;7.17;100.00;100008.03;5013181;28;20440;-69
2023/11/12 06:03:35;;;;;;;2.80;1.10;;;;;;;7.15;100.00;99997.56;5013214;28;20462;-69
2023/11/12 06:06:02;;;;;;;4.17;1.73;;;;;;;7.22;100.00;99999.91;5015183;28;20444;-69
2023/11/12 06:08:30;;;;;;;2.50;1.07;;;;;;;7.23;100.00;100001.50;5013282;28;20531;-69
2023/11/12 06:10:56;;;;;;;2.17;0.60;;;;;;;7.25;100.00;100005.47;5017722;28;20943;-69
2023/11/12 06:13:23;;;;;;;3.00;1.03;;;;;;;7.25;100.00;100016.25;5032423;28;20573;-69
2023/11/12 06:15:50;;;;;;;3.00;1.17;;;;;;;7.30;100.00;100018.88;5031162;28;20458;-69
2023/11/12 06:18:16;;;;;;;2.90;1.00;;;;;;;7.29;100.00;100022.66;5033162;28;20479;-69
2023/11/12 06:20:43;;;;;;;4.10;1.93;;;;;;;7.32;100.00;100026.66;5023846;28;20476;-69
2023/11/12 06:23:10;;;;;;;3.90;1.17;;;;;;;7.26;100.00;100025.94;5012640;28;20892;-69
2023/11/12 06:25:38;;;;;;;2.87;1.20;;;;;;;7.27;100.00;100024.84;5013067;28;20452;-69
2023/11/12 06:28:04;;;;;;;3.40;1.00;;;;;;;7.30;100.00;100024.28;5014047;28;20514;-69
2023/11/12 06:30:31;;;;;;;3.30;1.90;;;;;;;7.31;100.00;100025.88;5014101;28;20460;-69
2023/11/12 06:32:58;;;;;;;4.27;1.33;;;;;;;7.34;100.00;100035.25;5016519;28;20483;-68
2023/11/12 06:35:25;;;;;;;5.07;1.47;;;;;;;7.26;100.00;100030.50;5017417;28;20448;-68
2023/11/12 06:37:52;;;;;;;3.40;1.23;;;;;;;7.19;100.00;100027.41;5023744;28;20526;-68
2023/11/12 06:40:19;;;;;;;3.23;1.27;;;;;;;7.24;100.00;100036.19;5029587;28;20451;-68
2023/11/12 06:42:47;;;;;;;4.80;1.13;;;;;;;7.24;100.00;100041.59;5019784;28;20483;-68
2023/11/12 06:45:14;;;;;;;3.43;1.10;;;;;;;7.27;100.00;100048.31;5016457;28;20499;-69
2023/11/12 06:47:40;;;;;;;2.70;0.77;;;;;;;7.24;100.00;100054.25;5019448;28;20534;-69
2023/11/12 06:50:07;;;;;;;3.03;0.90;;;;;;;7.20;100.00;100045.97;5025140;28;20542;-69
2023/11/12 06:52:34;;;;;;;2.80;0.93;;;;;;;7.19;100.00;100044.38;5036073;28;20483;-69
2023/11/12 06:55:03;;;;;;;5.77;1.77;;;;;;;7.13;100.00;100045.53;5020752;28;20487;-69
2023/11/12 06:57:30;;;;;;;3.20;0.97;;;;;;;7.17;100.00;100045.72;5043381;22;20501;-66
2023/11/12 06:59:58;;;;;;;3.60;0.93;;;;;;;7.17;100.00;100046.56;5056013;28;20441;-67
2023/11/12 07:02:25;;;;;;;5.23;1.57;;;;;;;7.20;100.00;100056.72;5055956;28;20496;-67
2023/11/12 07:04:52;;;;;;;4.27;1.23;;;;;;;7.13;100.00;100050.94;5047345;28;20458;-65
2023/11/12 07:07:19;;;;;;;4.00;1.03;;;;;;;7.12;100.00;100051.19;5035746;28;20824;-65
2023/11/12 07:09:45;;;;;;;4.07;1.17;;;;;;;7.18;100.00;100056.22;5035358;28;20567;-65
2023/11/12 07:12:13;;;;;;;2.60;1.00;;;;;;;7.12;100.00;100068.16;5035517;28;20511;-65
2023/11/12 07:14:40;;;;;;;4.10;1.10;;;;;;;7.18;100.00;100068.91;5035649;28;20499;-65
2023/11/12 07:17:08;;;;;;;3.33;1.23;;;;;;;7.21;100.00;100066.41;5035732;28;20451;-65
2023/11/12 07:19:36;;;;;;;3.37;1.40;;;;;;;7.23;100.00;100075.00;5035363;28;20447;-65
2023/11/12 07:22:03;;;;;;;3.17;1.30;;;;;;;7.27;100.00;100061.75;5035417;28;20451;-65
2023/11/12 07:24:30;;;;;;;2.00;0.60;;;;;;;7.32;100.00;100065.19;5035624;28;20467;-65
2023/11/12 07:26:57;;;;;;;2.43;0.90;;;;;;;7.34;100.00;100067.56;5035375;28;20443;-64
2023/11/12 07:29:24;;;;;;;3.73;1.37;;;;;;;7.37;100.00;100066.19;5035184;28;20525;-64
2023/11/12 07:31:50;;;;;;;3.10;1.10;;;;;;;7.43;100.00;100073.91;5034672;28;20530;-64
2023/11/12 07:34:18;;;;;;;2.73;0.80;;;;;;;7.42;100.00;100069.63;5035513;28;20495;-64
2023/11/12 07:36:45;;;;;;;2.20;0.63;;;;;;;7.41;100.00;100061.84;5035422;28;20526;-64
2023/11/12 07:39:12;;;;;;;2.40;0.77;;;;;;;7.47;100.00;100071.44;5034643;28;20548;-64
2023/11/12 07:41:39;;;;;;;4.87;1.30;;;;;;;7.53;100.00;100075.66;5048312;28;20461;-64
2023/11/12 07:44:06;;;;;;;2.60;0.90;;;;;;;7.61;100.00;100082.25;5054332;28;20537;-64
2023/11/12 07:46:33;;;;;;;5.37;1.13;;;;;;;7.65;100.00;100078.69;5034669;28;20494;-64
2023/11/12 07:49:00;;;;;;;3.00;1.00;;;;;;;7.61;100.00;100085.75;5034663;28;20534;-64
2023/11/12 07:51:28;;;;;;;3.13;1.53;;;;;;;7.60;100.00;100076.06;5035062;28;20467;-64
2023/11/12 07:53:54;;;;;;;4.23;1.70;;;;;;;7.73;100.00;100086.09;5034978;28;20590;-64
2023/11/12 07:56:21;;;;;;;2.60;1.00;;;;;;;7.74;100.00;100087.69;5034693;28;20470;-64
2023/11/12 07:58:48;;;;;;;2.93;0.97;;;;;;;7.76;100.00;100090.13;5034752;28;20455;-64
2023/11/12 08:01:15;;;;;;;2.70;1.13;;;;;;;7.78;100.00;100082.53;5035195;28;20497;-64
2023/11/12 08:03:42;;;;;;;2.20;0.80;;;;;;;7.80;100.00;100081.16;5037812;28;20542;-64
2023/11/12 08:06:09;;;;;;;4.20;1.60;;;;;;;7.78;100.00;100083.31;5034810;28;20497;-64
2023/11/12 08:08:38;;;;;;;3.63;0.90;;;;;;;7.82;100.00;100083.53;5034507;28;20440;-64
2023/11/12 08:11:05;;;;;;;4.60;1.77;;;;;;;7.86;100.00;100081.84;5034364;28;20498;-64
2023/11/12 08:13:31;;;;;;;2.77;0.97;;;;;;;7.87;100.00;100077.25;5034962;28;20509;-64
2023/11/12 08:15:58;;;;;;;3.50;1.30;;;;;;;7.80;100.00;100078.44;5034347;28;20923;-64
2023/11/12 08:18:25;;;;;;;2.00;0.63;;;;;;;7.75;100.00;100078.53;5034601;28;20445;-64
2023/11/12 08:20:54;;;;;;;4.10;2.07;;;;;;;7.83;100.00;100072.47;5036612;28;20451;-64
2023/11/12 08:23:21;;;;;;;4.10;1.13;;;;;;;7.90;100.00;100082.88;5054651;28;20494;-65
2023/11/12 08:25:49;;;;;;;3.30;1.20;;;;;;;7.90;100.00;100079.38;5044603;28;20526;-64
2023/11/12 08:28:18;;;;;;;2.67;1.00;;;;;;;7.95;100.00;100088.16;5033206;28;20439;-66
2023/11/12 08:30:44;;;;;;;5.73;1.27;;;;;;;8.01;100.00;100088.88;5032720;28;20455;-65
2023/11/12 08:33:11;;;;;;;5.50;1.70;;;;;;;8.11;100.00;100088.72;5030865;28;20493;-65
2023/11/12 08:35:39;;;;;;;4.23;1.27;;;;;;;8.17;100.00;100094.81;5031569;28;20453;-67
2023/11/12 08:38:05;;;;;;;4.00;1.30;;;;;;;8.17;100.00;100094.81;5032267;28;20946;-66
2023/11/12 08:40:32;;;;;;;2.40;0.70;;;;;;;8.13;100.00;100091.13;5030199;28;20466;-66
2023/11/12 08:43:00;;;;;;;2.97;0.90;;;;;;;8.09;100.00;100099.00;5032576;28;20489;-67
2023/11/12 08:45:27;;;;;;;3.23;1.20;;;;;;;8.13;100.00;100100.00;5032177;28;21002;-67
2023/11/12 08:47:55;;;;;;;2.90;1.33;;;;;;;8.16;100.00;100101.31;5032516;28;20436;-66
2023/11/12 08:50:21;;;;;;;3.20;1.17;;;;;;;8.15;100.00;100095.13;5032492;28;20501;-66
2023/11/12 08:52:48;;;;;;;2.77;1.00;;;;;;;8.20;100.00;100097.72;5032071;28;21073;-66
2023/11/12 08:55:16;;;;;;;3.80;1.77;;;;;;;8.18;100.00;100105.31;5032326;28;20553;-66
2023/11/12 08:57:42;;;;;;;5.87;1.87;;;;;;;8.22;100.00;100106.31;5029969;28;20449;-66
2023/11/12 09:00:11;;;;;;;3.67;1.23;;;;;;;8.31;100.00;100112.63;5031890;28;20881;-66
2023/11/12 09:02:38;;;;;;;5.30;1.87;;;;;;;8.38;100.00;100109.59;5031942;28;20445;-67
2023/11/12 09:05:05;;;;;;;3.50;1.77;;;;;;;8.48;100.00;100111.28;5032035;28;20461;-66
2023/11/12 09:07:34;;;;;;;3.50;1.07;;;;;;;8.54;100.00;100110.09;5030974;28;20440;-66
2023/11/12 09:10:01;;;;;;;7.40;1.40;;;;;;;8.57;100.00;100112.19;5032317;28;20447;-67
2023/11/12 09:12:27;;;;;;;5.17;1.80;;;;;;;8.48;100.00;100101.28;5033153;28;20451;-67
2023/11/12 09:14:55;;;;;;;2.90;0.90;;;;;;;8.43;100.00;100114.09;5033767;28;20458;-67
2023/11/12 09:17:23;;;;;;;3.07;1.20;;;;;;;8.40;100.00;100117.38;5033195;28;20447;-66
2023/11/12 09:19:50;;;;;;;3.13;1.30;;;;;;;8.41;100.00;100117.09;5033106;28;20478;-66
2023/11/12 09:22:17;;;;;;;5.20;2.17;;;;;;;8.46;100.00;100118.91;5028694;28;20536;-66
2023/11/12 09:24:44;;;;;;;4.23;1.90;;;;;;;8.50;100.00;100125.28;5031649;28;20483;-66
2023/11/12 09:27:11;;;;;;;3.67;1.03;;;;;;;8.42;100.00;100128.69;5032022;28;20498;-66
2023/11/12 09:29:38;;;;;;;3.80;1.40;;;;;;;8.33;100.00;100125.84;5029197;28;20427;-66
2023/11/12 09:32:05;;;;;;;2.20;0.80;;;;;;;8.27;100.00;100130.50;5029052;28;20945;-66
2023/11/12 09:34:33;;;;;;;4.57;1.30;;;;;;;8.25;100.00;100123.81;5032897;28;20518;-66
2023/11/12 09:37:01;;;;;;;2.30;0.77;;;;;;;8.22;100.00;100136.00;5033671;28;20497;-66
2023/11/12 09:39:28;;;;;;;2.90;1.10;;;;;;;8.20;100.00;100138.19;5033054;28;20808;-66
2023/11/12 09:42:00;;;;;;;3.23;1.17;;;;;;;8.18;100.00;100131.50;5033147;28;20453;-66
2023/11/12 09:44:30;;;;;;;2.10;0.63;;;;;;;8.11;100.00;100134.59;5032892;28;20558;-66
2023/11/12 09:47:08;;;;;;;2.10;0.53;;;;;;;8.05;100.00;100130.34;5033542;28;20419;-66
2023/11/12 09:49:36;;;;;;;2.20;0.77;;;;;;;8.03;100.00;100133.34;5033260;28;20438;-66
2023/11/12 09:52:04;;;;;;;2.67;1.10;;;;;;;8.07;100.00;100128.19;5033342;28;20439;-66
2023/11/12 09:54:31;;;;;;;3.83;1.47;;;;;;;8.08;100.00;100135.16;5029865;28;20555;-66
2023/11/12 09:56:58;;;;;;;3.90;1.67;;;;;;;8.08;100.00;100129.75;5031310;28;20439;-66
2023/11/12 09:59:25;;;;;;;3.03;0.90;;;;;;;8.09;100.00;100137.56;5031582;28;20518;-66
2023/11/12 10:01:52;;;;;;;2.37;0.57;;;;;;;8.07;100.00;100120.88;5031711;28;20442;-66
2023/11/12 10:04:18;;;;;;;2.37;0.60;;;;;;;8.11;100.00;100128.38;5031711;28;20487;-66
2023/11/12 10:06:48;;;;;;;3.70;1.47;;;;;;;8.15;100.00;100121.31;5047247;28;20524;-66
2023/11/12 10:09:15;;;;;;;2.27;0.57;;;;;;;8.18;100.00;100123.41;5041661;28;20556;-66
2023/11/12 10:11:42;;;;;;;2.60;0.97;;;;;;;8.15;100.00;100124.00;5052829;28;20455;-66
2023/11/12 10:14:15;;;;;;;2.17;0.73;;;;;;;8.17;100.00;100122.59;5035744;28;20486;-66
2023/11/12 10:16:42;;;;;;;3.27;1.37;;;;;;;8.15;100.00;100130.19;5035628;28;20431;-66
2023/11/12 10:19:11;;;;;;;3.33;0.90;;;;;;;8.22;100.00;100129.81;5055642;28;21001;-66
2023/11/12 10:21:55;;;;;;;3.13;1.10;;;;;;;8.24;100.00;100128.41;5050860;28;20439;-66
2023/11/12 10:24:21;;;;;;;3.00;0.60;;;;;;;8.30;100.00;100138.00;5036650;28;20458;-66
2023/11/12 10:26:48;;;;;;;2.07;0.50;;;;;;;8.37;100.00;100132.28;5036615;28;20439;-66
2023/11/12 10:29:19;;;;;;;2.90;0.73;;;;;;;8.50;100.00;100131.50;5037566;28;20456;-66
2023/11/12 10:31:46;;;;;;;6.87;1.17;;;;;;;8.54;100.00;100131.69;5037335;28;20838;-66
2023/11/12 10:34:17;;;;;;;2.83;1.03;;;;;;;8.55;100.00;100138.69;5051983;22;20552;-66
2023/11/12 10:37:03;;;;;;;2.00;0.60;;;;;;;8.59;100.00;100137.00;5056161;28;20523;-66
2023/11/12 10:39:40;;;;;;;3.37;1.27;;;;;;;8.67;100.00;100141.69;5056709;28;20516;-66
2023/11/12 10:42:09;;;;;;;2.90;1.10;;;;;;;8.72;100.00;100138.09;5050404;28;20445;-66
2023/11/12 10:44:36;;;;;;;2.37;0.73;;;;;;;8.78;100.00;100126.09;5022561;28;20971;-66
2023/11/12 10:47:06;;;;;;;2.83;1.20;;;;;;;8.83;100.00;100140.31;5016731;28;20467;-66
2023/11/12 10:49:34;;;;;;;3.00;0.90;;;;;;;8.74;100.00;100131.31;5016597;28;20511;-66
2023/11/12 10:52:04;;;;;;;12.93;3.73;;;;;;;8.68;100.00;100129.81;5016395;28;20443;-66
2023/11/12 10:54:32;;;;;;;6.87;2.73;;;;;;;8.68;100.00;100132.50;5029672;28;20638;-66
2023/11/12 10:57:00;;;;;;;4.80;2.00;;;;;;;8.64;100.00;100138.81;5036465;28;20501;-66
2023/11/12 10:59:29;;;;;;;4.40;1.93;;;;;;;8.63;100.00;100140.69;5035911;28;20447;-65
2023/11/12 11:01:58;;;;;;;3.70;1.40;;;;;;;8.62;100.00;100136.38;5036107;28;20524;-65
2023/11/12 11:04:26;;;;;;;2.30;0.80;;;;;;;8.71;100.00;100150.00;5035312;28;20458;-65
2023/11/12 11:06:53;;;;;;;5.17;1.30;;;;;;;8.69;100.00;100136.81;5035366;28;20446;-65
2023/11/12 11:09:22;;;;;;;4.23;1.43;;;;;;;8.72;100.00;100143.50;5035457;28;20497;-65
2023/11/12 11:11:49;;;;;;;6.80;2.37;;;;;;;8.71;100.00;100137.28;5036174;28;20534;-65
2023/11/12 11:14:23;;;;;;;6.13;1.20;;;;;;;8.76;100.00;100139.88;5035770;28;20523;-65
2023/11/12 11:16:52;;;;;;;3.20;1.50;;;;;;;8.74;100.00;100136.72;5034111;28;20440;-65
2023/11/12 11:19:18;;;;;;;5.90;2.27;;;;;;;8.76;100.00;100142.59;5035267;28;20447;-65
2023/11/12 11:22:18;;;;;;;3.10;1.73;;;;;;;8.75;100.00;100138.28;5041638;28;20525;-66
2023/11/12 11:24:46;;;;;;;3.40;1.50;;;;;;;8.78;100.00;100143.09;5033569;28;20535;-65
2023/11/12 11:27:14;;;;;;;3.40;1.87;;;;;;;8.84;100.00;100143.81;5034327;28;20482;-65
2023/11/12 11:30:05;;;;;;;2.37;1.10;;;;;;;8.82;100.00;100144.13;5020193;28;20449;-65